Station Historical Data
Daily Summary for January 24, 2018 Units:  Both    English   Metric
« Previous Day
Next Day »
Daily Weekly Monthly Yearly Custom
  High: Low: Average:
Temperature: TemperatureF °F /  -17.8 °C 18.4 °F /  -7.6 °C 21.4 °F /  -5.9 °C
Dew Point: DewpointF °F /  -17.8 °C 11.9 °F /  -11.2 °C 14.8 °F /  -9.6 °C
Humidity: Humidity% 71% 75%
Wind Speed: WindSpeedMPHmph /  0km/h - 3.7mph /  6km/h
Wind Gust: WindSpeedGustMPHmph /  0km/h - -
Wind- - NW
Pressure: PressureIn in /  0 hPa 29.90 in /  1012.4 hPa -
Precipitation: 0.00 in /  0 mm    
Historical Graphs
 
 
Tabular Data for January 24, 2018
Time Temperature Dew Point Pressure Wind Wind Speed Wind Gust Humidity Rainfall Rate (Hourly)
TemperatureF °F /  -17.8 °C DewpointF °F /  -17.8 °C PressureInin /  0hPa Calm     Humidity% HourlyPrecipInin /  0mm
01:45 26.4 °F /  -3.1 °C 20.2 °F /  -6.6 °C 29.90in /  1012.4hPa West 9.0mph /  14.5km/h 20.0mph /  32.2km/h 77% 0.00in /  0mm
01:50 26.4 °F /  -3.1 °C 20.2 °F /  -6.6 °C 29.90in /  1012.4hPa West 8.0mph /  12.9km/h 20.0mph /  32.2km/h 77% 0.00in /  0mm
01:55 26.4 °F /  -3.1 °C 20.2 °F /  -6.6 °C 29.91in /  1012.8hPa West 8.0mph /  12.9km/h 16.0mph /  25.7km/h 77% 0.00in /  0mm
02:00 26.4 °F /  -3.1 °C 20.5 °F /  -6.4 °C 29.91in /  1012.8hPa WNW 7.0mph /  11.3km/h 18.0mph /  29km/h 78% 0.00in /  0mm
02:05 26.3 °F /  -3.2 °C 20.1 °F /  -6.6 °C 29.92in /  1013.1hPa WNW 9.0mph /  14.5km/h 18.0mph /  29km/h 77% 0.00in /  0mm
02:10 26.3 °F /  -3.2 °C 20.1 °F /  -6.6 °C 29.92in /  1013.1hPa West 8.0mph /  12.9km/h 18.0mph /  29km/h 77% 0.00in /  0mm
02:15 26.4 °F /  -3.1 °C 20.2 °F /  -6.6 °C 29.93in /  1013.4hPa West 10.0mph /  16.1km/h 19.0mph /  30.6km/h 77% 0.00in /  0mm
02:20 26.3 °F /  -3.2 °C 20.1 °F /  -6.6 °C 29.93in /  1013.4hPa West 8.0mph /  12.9km/h 19.0mph /  30.6km/h 77% 0.00in /  0mm
02:25 26.2 °F /  -3.2 °C 20.0 °F /  -6.7 °C 29.94in /  1013.8hPa West 9.0mph /  14.5km/h 21.0mph /  33.8km/h 77% 0.00in /  0mm
02:30 26.2 °F /  -3.2 °C 20.0 °F /  -6.7 °C 29.94in /  1013.8hPa West 8.0mph /  12.9km/h 21.0mph /  33.8km/h 77% 0.00in /  0mm
02:35 26.1 °F /  -3.3 °C 19.9 °F /  -6.7 °C 29.94in /  1013.8hPa WNW 8.0mph /  12.9km/h 21.0mph /  33.8km/h 77% 0.00in /  0mm
02:40 26.1 °F /  -3.3 °C 19.6 °F /  -6.9 °C 29.95in /  1014.1hPa WNW 9.0mph /  14.5km/h 17.0mph /  27.4km/h 76% 0.00in /  0mm
02:45 26.0 °F /  -3.3 °C 19.8 °F /  -6.8 °C 29.95in /  1014.1hPa West 8.0mph /  12.9km/h 17.0mph /  27.4km/h 77% 0.00in /  0mm
02:50 25.9 °F /  -3.4 °C 19.7 °F /  -6.8 °C 29.95in /  1014.1hPa West 8.0mph /  12.9km/h 17.0mph /  27.4km/h 77% 0.00in /  0mm
02:55 25.7 °F /  -3.5 °C 19.5 °F /  -6.9 °C 29.96in /  1014.4hPa WNW 9.0mph /  14.5km/h 18.0mph /  29km/h 77% 0.00in /  0mm
03:00 25.5 °F /  -3.6 °C 19.3 °F /  -7.1 °C 29.96in /  1014.4hPa WNW 8.0mph /  12.9km/h 18.0mph /  29km/h 77% 0.00in /  0mm
03:05 25.4 °F /  -3.7 °C 19.2 °F /  -7.1 °C 29.96in /  1014.4hPa WNW 7.0mph /  11.3km/h 18.0mph /  29km/h 77% 0.00in /  0mm
03:10 25.4 °F /  -3.7 °C 19.2 °F /  -7.1 °C 29.96in /  1014.4hPa WNW 9.0mph /  14.5km/h 17.0mph /  27.4km/h 77% 0.00in /  0mm
03:15 25.2 °F /  -3.8 °C 19.0 °F /  -7.2 °C 29.97in /  1014.8hPa WNW 7.0mph /  11.3km/h 17.0mph /  27.4km/h 77% 0.00in /  0mm
03:20 25.2 °F /  -3.8 °C 19.0 °F /  -7.2 °C 29.97in /  1014.8hPa WNW 8.0mph /  12.9km/h 16.0mph /  25.7km/h 77% 0.00in /  0mm
03:25 25.1 °F /  -3.8 °C 18.9 °F /  -7.3 °C 29.97in /  1014.8hPa WNW 7.0mph /  11.3km/h 16.0mph /  25.7km/h 77% 0.00in /  0mm
03:30 25.1 °F /  -3.8 °C 18.9 °F /  -7.3 °C 29.98in /  1015.1hPa WNW 8.0mph /  12.9km/h 16.0mph /  25.7km/h 77% 0.00in /  0mm
03:35 25.1 °F /  -3.8 °C 18.6 °F /  -7.4 °C 29.98in /  1015.1hPa West 8.0mph /  12.9km/h 16.0mph /  25.7km/h 76% 0.00in /  0mm
03:40 25.1 °F /  -3.8 °C 18.6 °F /  -7.4 °C 29.98in /  1015.1hPa West 7.0mph /  11.3km/h 14.0mph /  22.5km/h 76% 0.00in /  0mm
03:45 25.0 °F /  -3.9 °C 18.5 °F /  -7.5 °C 29.99in /  1015.5hPa West 8.0mph /  12.9km/h 14.0mph /  22.5km/h 76% 0.00in /  0mm
03:50 25.0 °F /  -3.9 °C 18.5 °F /  -7.5 °C 29.99in /  1015.5hPa West 9.0mph /  14.5km/h 16.0mph /  25.7km/h 76% 0.00in /  0mm
03:55 25.0 °F /  -3.9 °C 18.5 °F /  -7.5 °C 29.99in /  1015.5hPa West 6.0mph /  9.7km/h 16.0mph /  25.7km/h 76% 0.00in /  0mm
04:00 25.0 °F /  -3.9 °C 18.5 °F /  -7.5 °C 29.99in /  1015.5hPa West 7.0mph /  11.3km/h 16.0mph /  25.7km/h 76% 0.00in /  0mm
04:05 25.0 °F /  -3.9 °C 18.5 °F /  -7.5 °C 30.00in /  1015.8hPa West 6.0mph /  9.7km/h 13.0mph /  20.9km/h 76% 0.00in /  0mm
04:15 25.0 °F /  -3.9 °C 18.5 °F /  -7.5 °C 30.00in /  1015.8hPa West 7.0mph /  11.3km/h 12.0mph /  19.3km/h 76% 0.00in /  0mm
04:20 24.9 °F /  -3.9 °C 18.4 °F /  -7.6 °C 30.01in /  1016.1hPa West 7.0mph /  11.3km/h 14.0mph /  22.5km/h 76% 0.00in /  0mm
04:25 25.0 °F /  -3.9 °C 18.5 °F /  -7.5 °C 30.01in /  1016.1hPa West 5.0mph /  8km/h 14.0mph /  22.5km/h 76% 0.00in /  0mm
04:30 24.9 °F /  -3.9 °C 18.4 °F /  -7.6 °C 30.01in /  1016.1hPa NW 5.0mph /  8km/h 14.0mph /  22.5km/h 76% 0.00in /  0mm
04:40 24.9 °F /  -3.9 °C 18.7 °F /  -7.4 °C 30.02in /  1016.5hPa WNW 4.0mph /  6.4km/h 12.0mph /  19.3km/h 77% 0.00in /  0mm
04:45 24.8 °F /  -4 °C 18.6 °F /  -7.4 °C 30.02in /  1016.5hPa WNW 4.0mph /  6.4km/h 10.0mph /  16.1km/h 77% 0.00in /  0mm
04:50 24.7 °F /  -4.1 °C 18.5 °F /  -7.5 °C 30.02in /  1016.5hPa NW 5.0mph /  8km/h 13.0mph /  20.9km/h 77% 0.00in /  0mm
04:55 24.5 °F /  -4.2 °C 18.3 °F /  -7.6 °C 30.03in /  1016.8hPa NW 5.0mph /  8km/h 13.0mph /  20.9km/h 77% 0.00in /  0mm
05:00 24.4 °F /  -4.2 °C 18.5 °F /  -7.5 °C 30.03in /  1016.8hPa NW 5.0mph /  8km/h 13.0mph /  20.9km/h 78% 0.00in /  0mm
05:05 24.4 °F /  -4.2 °C 18.5 °F /  -7.5 °C 30.03in /  1016.8hPa WNW 4.0mph /  6.4km/h 11.0mph /  17.7km/h 78% 0.00in /  0mm
05:10 24.2 °F /  -4.3 °C 18.3 °F /  -7.6 °C 30.03in /  1016.8hPa WNW 5.0mph /  8km/h 10.0mph /  16.1km/h 78% 0.00in /  0mm
05:15 24.0 °F /  -4.4 °C 18.1 °F /  -7.7 °C 30.04in /  1017.2hPa NW 5.0mph /  8km/h 11.0mph /  17.7km/h 78% 0.00in /  0mm
05:20 23.8 °F /  -4.6 °C 17.9 °F /  -7.8 °C 30.04in /  1017.2hPa NW 6.0mph /  9.7km/h 12.0mph /  19.3km/h 78% 0.00in /  0mm
05:25 23.6 °F /  -4.7 °C 17.4 °F /  -8.1 °C 30.04in /  1017.2hPa NW 6.0mph /  9.7km/h 12.0mph /  19.3km/h 77% 0.00in /  0mm
05:30 23.5 °F /  -4.7 °C 17.3 °F /  -8.2 °C 30.05in /  1017.5hPa WNW 6.0mph /  9.7km/h 12.0mph /  19.3km/h 77% 0.00in /  0mm
05:35 23.4 °F /  -4.8 °C 17.3 °F /  -8.2 °C 30.05in /  1017.5hPa WNW 7.0mph /  11.3km/h 13.0mph /  20.9km/h 77% 0.00in /  0mm
05:40 23.3 °F /  -4.8 °C 17.5 °F /  -8.1 °C 30.05in /  1017.5hPa WNW 6.0mph /  9.7km/h 13.0mph /  20.9km/h 78% 0.00in /  0mm
05:45 23.2 °F /  -4.9 °C 17.4 °F /  -8.1 °C 30.05in /  1017.5hPa West 6.0mph /  9.7km/h 13.0mph /  20.9km/h 78% 0.00in /  0mm
05:50 23.2 °F /  -4.9 °C 17.1 °F /  -8.3 °C 30.05in /  1017.5hPa WNW 6.0mph /  9.7km/h 12.0mph /  19.3km/h 77% 0.00in /  0mm
06:00 23.1 °F /  -4.9 °C 17.0 °F /  -8.3 °C 30.06in /  1017.8hPa NW 5.0mph /  8km/h 13.0mph /  20.9km/h 77% 0.00in /  0mm
06:05 23.1 °F /  -4.9 °C 17.3 °F /  -8.2 °C 30.07in /  1018.2hPa WNW 6.0mph /  9.7km/h 14.0mph /  22.5km/h 78% 0.00in /  0mm
06:10 23.0 °F /  -5 °C 16.9 °F /  -8.4 °C 30.07in /  1018.2hPa West 7.0mph /  11.3km/h 14.0mph /  22.5km/h 77% 0.00in /  0mm
06:15 23.0 °F /  -5 °C 16.9 °F /  -8.4 °C 30.07in /  1018.2hPa WNW 7.0mph /  11.3km/h 15.0mph /  24.1km/h 77% 0.00in /  0mm
06:20 22.9 °F /  -5.1 °C 16.8 °F /  -8.4 °C 30.08in /  1018.5hPa WNW 6.0mph /  9.7km/h 15.0mph /  24.1km/h 77% 0.00in /  0mm
06:25 22.9 °F /  -5.1 °C 16.8 °F /  -8.4 °C 30.08in /  1018.5hPa West 6.0mph /  9.7km/h 15.0mph /  24.1km/h 77% 0.00in /  0mm
06:30 22.7 °F /  -5.2 °C 16.6 °F /  -8.6 °C 30.09in /  1018.8hPa WNW 7.0mph /  11.3km/h 13.0mph /  20.9km/h 77% 0.00in /  0mm
06:40 22.6 °F /  -5.2 °C 16.2 °F /  -8.8 °C 30.09in /  1018.8hPa NW 8.0mph /  12.9km/h 15.0mph /  24.1km/h 76% 0.00in /  0mm
06:45 22.4 °F /  -5.3 °C 16.3 °F /  -8.7 °C 30.09in /  1018.8hPa NW 6.0mph /  9.7km/h 15.0mph /  24.1km/h 77% 0.00in /  0mm
06:50 22.3 °F /  -5.4 °C 16.2 °F /  -8.8 °C 30.10in /  1019.2hPa WNW 7.0mph /  11.3km/h 15.0mph /  24.1km/h 77% 0.00in /  0mm
06:55 22.1 °F /  -5.5 °C 16.0 °F /  -8.9 °C 30.10in /  1019.2hPa WNW 8.0mph /  12.9km/h 15.0mph /  24.1km/h 77% 0.00in /  0mm
07:00 22.0 °F /  -5.6 °C 15.9 °F /  -8.9 °C 30.11in /  1019.5hPa WNW 7.0mph /  11.3km/h 15.0mph /  24.1km/h 77% 0.00in /  0mm
07:05 21.9 °F /  -5.6 °C 15.8 °F /  -9 °C 30.11in /  1019.5hPa NW 5.0mph /  8km/h 15.0mph /  24.1km/h 77% 0.00in /  0mm
07:10 21.6 °F /  -5.8 °C 15.8 °F /  -9 °C 30.11in /  1019.5hPa NNW 4.0mph /  6.4km/h 13.0mph /  20.9km/h 78% 0.00in /  0mm
07:15 21.5 °F /  -5.8 °C 15.7 °F /  -9.1 °C 30.12in /  1019.9hPa NW 5.0mph /  8km/h 12.0mph /  19.3km/h 78% 0.00in /  0mm
07:20 21.4 °F /  -5.9 °C 15.6 °F /  -9.1 °C 30.12in /  1019.9hPa NW 4.0mph /  6.4km/h 10.0mph /  16.1km/h 78% 0.00in /  0mm
07:25 21.3 °F /  -5.9 °C 15.5 °F /  -9.2 °C 30.12in /  1019.9hPa NW 4.0mph /  6.4km/h 10.0mph /  16.1km/h 78% 0.00in /  0mm
07:30 21.2 °F /  -6 °C 15.4 °F /  -9.2 °C 30.12in /  1019.9hPa NW 5.0mph /  8km/h 15.0mph /  24.1km/h 78% 0.00in /  0mm
07:35 21.2 °F /  -6 °C 15.4 °F /  -9.2 °C 30.13in /  1020.2hPa NW 5.0mph /  8km/h 15.0mph /  24.1km/h 78% 0.00in /  0mm
07:40 21.1 °F /  -6.1 °C 15.3 °F /  -9.3 °C 30.13in /  1020.2hPa NW 5.0mph /  8km/h 15.0mph /  24.1km/h 78% 0.00in /  0mm
07:45 21.0 °F /  -6.1 °C 15.2 °F /  -9.3 °C 30.13in /  1020.2hPa NW 5.0mph /  8km/h 13.0mph /  20.9km/h 78% 0.00in /  0mm
07:50 20.9 °F /  -6.2 °C 15.1 °F /  -9.4 °C 30.14in /  1020.5hPa NW 5.0mph /  8km/h 13.0mph /  20.9km/h 78% 0.00in /  0mm
07:55 20.9 °F /  -6.2 °C 15.1 °F /  -9.4 °C 30.14in /  1020.5hPa NW 6.0mph /  9.7km/h 13.0mph /  20.9km/h 78% 0.00in /  0mm
08:00 20.8 °F /  -6.2 °C 15.0 °F /  -9.4 °C 30.14in /  1020.5hPa NW 5.0mph /  8km/h 13.0mph /  20.9km/h 78% 0.00in /  0mm
08:10 20.7 °F /  -6.3 °C 14.9 °F /  -9.5 °C 30.15in /  1020.9hPa NW 5.0mph /  8km/h 12.0mph /  19.3km/h 78% 0.00in /  0mm
08:15 20.6 °F /  -6.3 °C 14.8 °F /  -9.6 °C 30.15in /  1020.9hPa NNW 5.0mph /  8km/h 11.0mph /  17.7km/h 78% 0.00in /  0mm
08:20 20.5 °F /  -6.4 °C 14.7 °F /  -9.6 °C 30.15in /  1020.9hPa NNW 4.0mph /  6.4km/h 10.0mph /  16.1km/h 78% 0.00in /  0mm
08:25 20.5 °F /  -6.4 °C 14.7 °F /  -9.6 °C 30.15in /  1020.9hPa NNW 4.0mph /  6.4km/h 10.0mph /  16.1km/h 78% 0.00in /  0mm
08:30 20.4 °F /  -6.4 °C 14.6 °F /  -9.7 °C 30.16in /  1021.2hPa NNW 4.0mph /  6.4km/h 10.0mph /  16.1km/h 78% 0.00in /  0mm
08:35 20.3 °F /  -6.5 °C 14.5 °F /  -9.7 °C 30.16in /  1021.2hPa NNW 5.0mph /  8km/h 10.0mph /  16.1km/h 78% 0.00in /  0mm
08:40 20.4 °F /  -6.4 °C 14.6 °F /  -9.7 °C 30.16in /  1021.2hPa NNW 4.0mph /  6.4km/h 10.0mph /  16.1km/h 78% 0.00in /  0mm
08:45 20.3 °F /  -6.5 °C 14.5 °F /  -9.7 °C 30.16in /  1021.2hPa NW 5.0mph /  8km/h 10.0mph /  16.1km/h 78% 0.00in /  0mm
08:50 20.3 °F /  -6.5 °C 14.5 °F /  -9.7 °C 30.16in /  1021.2hPa NW 5.0mph /  8km/h 10.0mph /  16.1km/h 78% 0.00in /  0mm
08:55 20.2 °F /  -6.6 °C 14.4 °F /  -9.8 °C 30.16in /  1021.2hPa NW 5.0mph /  8km/h 10.0mph /  16.1km/h 78% 0.00in /  0mm
09:00 20.2 °F /  -6.6 °C 14.4 °F /  -9.8 °C 30.17in /  1021.6hPa NW 4.0mph /  6.4km/h 10.0mph /  16.1km/h 78% 0.00in /  0mm
09:05 20.1 °F /  -6.6 °C 14.3 °F /  -9.8 °C 30.17in /  1021.6hPa NW 4.0mph /  6.4km/h 10.0mph /  16.1km/h 78% 0.00in /  0mm
09:10 20.1 °F /  -6.6 °C 14.0 °F /  -10 °C 30.17in /  1021.6hPa NW 6.0mph /  9.7km/h 10.0mph /  16.1km/h 77% 0.00in /  0mm
09:15 20.1 °F /  -6.6 °C 14.3 °F /  -9.8 °C 30.17in /  1021.6hPa NW 5.0mph /  8km/h 10.0mph /  16.1km/h 78% 0.00in /  0mm
09:20 20.2 °F /  -6.6 °C 14.4 °F /  -9.8 °C 30.17in /  1021.6hPa NW 4.0mph /  6.4km/h 10.0mph /  16.1km/h 78% 0.00in /  0mm
09:30 20.3 °F /  -6.5 °C 14.2 °F /  -9.9 °C 30.18in /  1021.9hPa NW 6.0mph /  9.7km/h 11.0mph /  17.7km/h 77% 0.00in /  0mm
09:35 20.4 °F /  -6.4 °C 14.3 °F /  -9.8 °C 30.18in /  1021.9hPa NW 5.0mph /  8km/h 11.0mph /  17.7km/h 77% 0.00in /  0mm
09:40 20.6 °F /  -6.3 °C 14.5 °F /  -9.7 °C 30.18in /  1021.9hPa NW 6.0mph /  9.7km/h 16.0mph /  25.7km/h 77% 0.00in /  0mm
09:45 20.7 °F /  -6.3 °C 14.6 °F /  -9.7 °C 30.18in /  1021.9hPa NW 4.0mph /  6.4km/h 16.0mph /  25.7km/h 77% 0.00in /  0mm
09:50 20.9 °F /  -6.2 °C 14.8 °F /  -9.6 °C 30.18in /  1021.9hPa NW 4.0mph /  6.4km/h 16.0mph /  25.7km/h 77% 0.00in /  0mm
09:55 20.7 °F /  -6.3 °C 14.6 °F /  -9.7 °C 30.18in /  1021.9hPa NNW 5.0mph /  8km/h 13.0mph /  20.9km/h 77% 0.00in /  0mm
10:00 20.6 °F /  -6.3 °C 14.2 °F /  -9.9 °C 30.19in /  1022.2hPa NNW 5.0mph /  8km/h 13.0mph /  20.9km/h 76% 0.00in /  0mm
10:05 20.8 °F /  -6.2 °C 14.4 °F /  -9.8 °C 30.19in /  1022.2hPa NW 4.0mph /  6.4km/h 13.0mph /  20.9km/h 76% 0.00in /  0mm
10:10 21.3 °F /  -5.9 °C 14.9 °F /  -9.5 °C 30.19in /  1022.2hPa NW 2.0mph /  3.2km/h 10.0mph /  16.1km/h 76% 0.00in /  0mm
10:15 21.4 °F /  -5.9 °C 14.4 °F /  -9.8 °C 30.19in /  1022.2hPa NW 4.0mph /  6.4km/h 8.0mph /  12.9km/h 74% 0.00in /  0mm
10:25 21.4 °F /  -5.9 °C 13.8 °F /  -10.1 °C 30.20in /  1022.6hPa NW 5.0mph /  8km/h 11.0mph /  17.7km/h 72% 0.00in /  0mm
10:30 21.2 °F /  -6 °C 13.6 °F /  -10.2 °C 30.20in /  1022.6hPa NW 5.0mph /  8km/h 11.0mph /  17.7km/h 72% 0.00in /  0mm
10:35 20.8 °F /  -6.2 °C 13.2 °F /  -10.4 °C 30.20in /  1022.6hPa NNW 6.0mph /  9.7km/h 13.0mph /  20.9km/h 72% 0.00in /  0mm
10:40 20.8 °F /  -6.2 °C 13.2 °F /  -10.4 °C 30.20in /  1022.6hPa NNW 6.0mph /  9.7km/h 13.0mph /  20.9km/h 72% 0.00in /  0mm
10:45 20.9 °F /  -6.2 °C 13.3 °F /  -10.4 °C 30.20in /  1022.6hPa NW 5.0mph /  8km/h 13.0mph /  20.9km/h 72% 0.00in /  0mm
10:50 21.0 °F /  -6.1 °C 13.4 °F /  -10.3 °C 30.20in /  1022.6hPa WNW 5.0mph /  8km/h 11.0mph /  17.7km/h 72% 0.00in /  0mm
10:55 21.6 °F /  -5.8 °C 13.6 °F /  -10.2 °C 30.20in /  1022.6hPa NW 3.0mph /  4.8km/h 10.0mph /  16.1km/h 71% 0.00in /  0mm
11:05 21.1 °F /  -6.1 °C 13.2 °F /  -10.4 °C 30.20in /  1022.6hPa NW 5.0mph /  8km/h 11.0mph /  17.7km/h 71% 0.00in /  0mm
11:10 21.1 °F /  -6.1 °C 13.5 °F /  -10.3 °C 30.19in /  1022.2hPa NW 5.0mph /  8km/h 11.0mph /  17.7km/h 72% 0.00in /  0mm
11:15 21.1 °F /  -6.1 °C 13.5 °F /  -10.3 °C 30.19in /  1022.2hPa NNW 5.0mph /  8km/h 11.0mph /  17.7km/h 72% 0.00in /  0mm
11:20 21.0 °F /  -6.1 °C 13.7 °F /  -10.2 °C 30.19in /  1022.2hPa NW 5.0mph /  8km/h 11.0mph /  17.7km/h 73% 0.00in /  0mm
11:25 20.9 °F /  -6.2 °C 13.6 °F /  -10.2 °C 30.19in /  1022.2hPa NW 5.0mph /  8km/h 13.0mph /  20.9km/h 73% 0.00in /  0mm
11:30 20.9 °F /  -6.2 °C 13.6 °F /  -10.2 °C 30.19in /  1022.2hPa NNW 5.0mph /  8km/h 13.0mph /  20.9km/h 73% 0.00in /  0mm
11:35 21.1 °F /  -6.1 °C 14.4 °F /  -9.8 °C 30.19in /  1022.2hPa NNW 4.0mph /  6.4km/h 13.0mph /  20.9km/h 75% 0.00in /  0mm
11:40 21.5 °F /  -5.8 °C 14.8 °F /  -9.6 °C 30.19in /  1022.2hPa NW 4.0mph /  6.4km/h 10.0mph /  16.1km/h 75% 0.00in /  0mm
11:45 22.0 °F /  -5.6 °C 15.3 °F /  -9.3 °C 30.19in /  1022.2hPa WNW 5.0mph /  8km/h 10.0mph /  16.1km/h 75% 0.00in /  0mm
11:50 21.5 °F /  -5.8 °C 14.2 °F /  -9.9 °C 30.19in /  1022.2hPa NW 7.0mph /  11.3km/h 11.0mph /  17.7km/h 73% 0.00in /  0mm
11:55 21.6 °F /  -5.8 °C 14.6 °F /  -9.7 °C 30.18in /  1021.9hPa NW 4.0mph /  6.4km/h 11.0mph /  17.7km/h 74% 0.00in /  0mm
12:00 21.4 °F /  -5.9 °C 14.4 °F /  -9.8 °C 30.18in /  1021.9hPa NNW 4.0mph /  6.4km/h 11.0mph /  17.7km/h 74% 0.00in /  0mm
12:05 21.4 °F /  -5.9 °C 14.4 °F /  -9.8 °C 30.18in /  1021.9hPa NNW 4.0mph /  6.4km/h 10.0mph /  16.1km/h 74% 0.00in /  0mm
12:10 21.2 °F /  -6 °C 14.5 °F /  -9.7 °C 30.18in /  1021.9hPa NNW 5.0mph /  8km/h 12.0mph /  19.3km/h 75% 0.00in /  0mm
12:20 21.1 °F /  -6.1 °C 14.1 °F /  -9.9 °C 30.18in /  1021.9hPa NNW 4.0mph /  6.4km/h 12.0mph /  19.3km/h 74% 0.00in /  0mm
12:25 21.2 °F /  -6 °C 13.9 °F /  -10.1 °C 30.18in /  1021.9hPa NW 5.0mph /  8km/h 11.0mph /  17.7km/h 73% 0.00in /  0mm
12:30 21.5 °F /  -5.8 °C 13.9 °F /  -10.1 °C 30.18in /  1021.9hPa WNW 5.0mph /  8km/h 14.0mph /  22.5km/h 72% 0.00in /  0mm
12:35 21.4 °F /  -5.9 °C 13.8 °F /  -10.1 °C 30.18in /  1021.9hPa NW 4.0mph /  6.4km/h 14.0mph /  22.5km/h 72% 0.00in /  0mm
12:40 21.3 °F /  -5.9 °C 13.7 °F /  -10.2 °C 30.18in /  1021.9hPa NNW 4.0mph /  6.4km/h 14.0mph /  22.5km/h 72% 0.00in /  0mm
12:45 21.6 °F /  -5.8 °C 14.0 °F /  -10 °C 30.17in /  1021.6hPa NW 5.0mph /  8km/h 12.0mph /  19.3km/h 72% 0.00in /  0mm
12:50 21.6 °F /  -5.8 °C 14.0 °F /  -10 °C 30.18in /  1021.9hPa NW 4.0mph /  6.4km/h 12.0mph /  19.3km/h 72% 0.00in /  0mm
12:55 21.4 °F /  -5.9 °C 14.1 °F /  -9.9 °C 30.18in /  1021.9hPa NNW 4.0mph /  6.4km/h 12.0mph /  19.3km/h 73% 0.00in /  0mm
13:00 21.5 °F /  -5.8 °C 14.5 °F /  -9.7 °C 30.18in /  1021.9hPa NNW 4.0mph /  6.4km/h 9.0mph /  14.5km/h 74% 0.00in /  0mm
13:05 20.9 °F /  -6.2 °C 13.9 °F /  -10.1 °C 30.18in /  1021.9hPa NNW 4.0mph /  6.4km/h 9.0mph /  14.5km/h 74% 0.00in /  0mm
13:10 21.1 °F /  -6.1 °C 14.1 °F /  -9.9 °C 30.17in /  1021.6hPa North 3.0mph /  4.8km/h 9.0mph /  14.5km/h 74% 0.00in /  0mm
13:15 21.1 °F /  -6.1 °C 14.1 °F /  -9.9 °C 30.17in /  1021.6hPa NNW 3.0mph /  4.8km/h 8.0mph /  12.9km/h 74% 0.00in /  0mm
13:20 20.7 °F /  -6.3 °C 13.4 °F /  -10.3 °C 30.18in /  1021.9hPa NNW 4.0mph /  6.4km/h 8.0mph /  12.9km/h 73% 0.00in /  0mm
13:25 20.6 °F /  -6.3 °C 13.3 °F /  -10.4 °C 30.18in /  1021.9hPa NNW 5.0mph /  8km/h 11.0mph /  17.7km/h 73% 0.00in /  0mm
13:30 21.0 °F /  -6.1 °C 14.0 °F /  -10 °C 30.17in /  1021.6hPa NNW 3.0mph /  4.8km/h 11.0mph /  17.7km/h 74% 0.00in /  0mm
13:35 21.1 °F /  -6.1 °C 13.5 °F /  -10.3 °C 30.18in /  1021.9hPa WNW 5.0mph /  8km/h 11.0mph /  17.7km/h 72% 0.00in /  0mm
13:40 21.5 °F /  -5.8 °C 13.9 °F /  -10.1 °C 30.18in /  1021.9hPa WNW 3.0mph /  4.8km/h 9.0mph /  14.5km/h 72% 0.00in /  0mm
13:45 21.4 °F /  -5.9 °C 13.8 °F /  -10.1 °C 30.18in /  1021.9hPa NNW 4.0mph /  6.4km/h 9.0mph /  14.5km/h 72% 0.00in /  0mm
13:50 21.5 °F /  -5.8 °C 13.9 °F /  -10.1 °C 30.18in /  1021.9hPa North 3.0mph /  4.8km/h 7.0mph /  11.3km/h 72% 0.00in /  0mm
13:55 22.2 °F /  -5.4 °C 14.9 °F /  -9.5 °C 30.18in /  1021.9hPa NW 3.0mph /  4.8km/h 7.0mph /  11.3km/h 73% 0.00in /  0mm
14:00 22.0 °F /  -5.6 °C 14.7 °F /  -9.6 °C 30.18in /  1021.9hPa NW 3.0mph /  4.8km/h 6.0mph /  9.7km/h 73% 0.00in /  0mm
14:05 21.2 °F /  -6 °C 13.6 °F /  -10.2 °C 30.18in /  1021.9hPa North 5.0mph /  8km/h 9.0mph /  14.5km/h 72% 0.00in /  0mm
14:10 21.2 °F /  -6 °C 14.2 °F /  -9.9 °C 30.18in /  1021.9hPa North 3.0mph /  4.8km/h 9.0mph /  14.5km/h 74% 0.00in /  0mm
14:15 21.4 °F /  -5.9 °C 14.4 °F /  -9.8 °C 30.18in /  1021.9hPa NNW 4.0mph /  6.4km/h 9.0mph /  14.5km/h 74% 0.00in /  0mm
14:20 22.1 °F /  -5.5 °C 14.4 °F /  -9.8 °C 30.18in /  1021.9hPa WNW 3.0mph /  4.8km/h 9.0mph /  14.5km/h 72% 0.00in /  0mm
14:25 22.2 °F /  -5.4 °C 14.5 °F /  -9.7 °C 30.18in /  1021.9hPa WNW 3.0mph /  4.8km/h 9.0mph /  14.5km/h 72% 0.00in /  0mm
14:30 22.0 °F /  -5.6 °C 14.3 °F /  -9.8 °C 30.18in /  1021.9hPa NW 3.0mph /  4.8km/h 8.0mph /  12.9km/h 72% 0.00in /  0mm
14:35 22.1 °F /  -5.5 °C 14.1 °F /  -9.9 °C 30.18in /  1021.9hPa NW 4.0mph /  6.4km/h 8.0mph /  12.9km/h 71% 0.00in /  0mm
14:40 22.4 °F /  -5.3 °C 14.7 °F /  -9.6 °C 30.18in /  1021.9hPa WNW 3.0mph /  4.8km/h 8.0mph /  12.9km/h 72% 0.00in /  0mm
14:45 22.3 °F /  -5.4 °C 14.3 °F /  -9.8 °C 30.19in /  1022.2hPa WNW 4.0mph /  6.4km/h 10.0mph /  16.1km/h 71% 0.00in /  0mm
14:55 21.8 °F /  -5.7 °C 13.8 °F /  -10.1 °C 30.19in /  1022.2hPa NW 4.0mph /  6.4km/h 10.0mph /  16.1km/h 71% 0.00in /  0mm
15:00 21.8 °F /  -5.7 °C 14.2 °F /  -9.9 °C 30.19in /  1022.2hPa NNW 4.0mph /  6.4km/h 10.0mph /  16.1km/h 72% 0.00in /  0mm
15:05 22.1 °F /  -5.5 °C 14.4 °F /  -9.8 °C 30.19in /  1022.2hPa North 4.0mph /  6.4km/h 10.0mph /  16.1km/h 72% 0.00in /  0mm
15:10 21.8 °F /  -5.7 °C 14.2 °F /  -9.9 °C 30.20in /  1022.6hPa North 5.0mph /  8km/h 10.0mph /  16.1km/h 72% 0.00in /  0mm
15:15 21.8 °F /  -5.7 °C 14.5 °F /  -9.7 °C 30.20in /  1022.6hPa NNW 3.0mph /  4.8km/h 9.0mph /  14.5km/h 73% 0.00in /  0mm
15:20 21.9 °F /  -5.6 °C 14.6 °F /  -9.7 °C 30.20in /  1022.6hPa NW 3.0mph /  4.8km/h 9.0mph /  14.5km/h 73% 0.00in /  0mm
15:25 22.1 °F /  -5.5 °C 14.4 °F /  -9.8 °C 30.20in /  1022.6hPa NW 4.0mph /  6.4km/h 9.0mph /  14.5km/h 72% 0.00in /  0mm
15:30 22.3 °F /  -5.4 °C 14.6 °F /  -9.7 °C 30.21in /  1022.9hPa NNW 4.0mph /  6.4km/h 10.0mph /  16.1km/h 72% 0.00in /  0mm
15:35 22.3 °F /  -5.4 °C 14.6 °F /  -9.7 °C 30.21in /  1022.9hPa NNW 4.0mph /  6.4km/h 10.0mph /  16.1km/h 72% 0.00in /  0mm
15:40 22.0 °F /  -5.6 °C 14.0 °F /  -10 °C 30.21in /  1022.9hPa NW 3.0mph /  4.8km/h 10.0mph /  16.1km/h 71% 0.00in /  0mm
15:58 22.2 °F /  -5.4 °C 14.5 °F /  -9.7 °C 30.21in /  1022.9hPa WNW 5.0mph /  8km/h 10.0mph /  16.1km/h 72% 0.00in /  0mm
16:05 22.3 °F /  -5.4 °C 14.6 °F /  -9.7 °C 30.21in /  1022.9hPa NW 5.0mph /  8km/h 8.0mph /  12.9km/h 72% 0.00in /  0mm
16:10 22.0 °F /  -5.6 °C 14.0 °F /  -10 °C 30.21in /  1022.9hPa WNW 2.0mph /  3.2km/h 7.0mph /  11.3km/h 71% 0.00in /  0mm
16:15 21.9 °F /  -5.6 °C 13.9 °F /  -10.1 °C 30.21in /  1022.9hPa NW 3.0mph /  4.8km/h 5.0mph /  8km/h 71% 0.00in /  0mm
16:20 21.7 °F /  -5.7 °C 14.1 °F /  -9.9 °C 30.22in /  1023.2hPa NW 5.0mph /  8km/h 9.0mph /  14.5km/h 72% 0.00in /  0mm
16:25 21.5 °F /  -5.8 °C 13.9 °F /  -10.1 °C 30.22in /  1023.2hPa NW 4.0mph /  6.4km/h 9.0mph /  14.5km/h 72% 0.00in /  0mm
16:30 21.5 °F /  -5.8 °C 13.9 °F /  -10.1 °C 30.22in /  1023.2hPa NW 3.0mph /  4.8km/h 7.0mph /  11.3km/h 72% 0.00in /  0mm
16:35 21.6 °F /  -5.8 °C 14.3 °F /  -9.8 °C 30.23in /  1023.6hPa NW 2.0mph /  3.2km/h 4.0mph /  6.4km/h 73% 0.00in /  0mm
16:40 21.6 °F /  -5.8 °C 14.3 °F /  -9.8 °C 30.23in /  1023.6hPa WNW 6.0mph /  9.7km/h 7.0mph /  11.3km/h 73% 0.00in /  0mm
16:45 21.5 °F /  -5.8 °C 14.2 °F /  -9.9 °C 30.23in /  1023.6hPa WNW 4.0mph /  6.4km/h 6.0mph /  9.7km/h 73% 0.00in /  0mm
16:50 21.3 °F /  -5.9 °C 14.0 °F /  -10 °C 30.23in /  1023.6hPa NW 1.0mph /  1.6km/h 7.0mph /  11.3km/h 73% 0.00in /  0mm
16:55 21.2 °F /  -6 °C 13.9 °F /  -10.1 °C 30.23in /  1023.6hPa NNW 3.0mph /  4.8km/h 8.0mph /  12.9km/h 73% 0.00in /  0mm
17:00 21.1 °F /  -6.1 °C 13.8 °F /  -10.1 °C 30.24in /  1023.9hPa NNW 3.0mph /  4.8km/h 8.0mph /  12.9km/h 73% 0.00in /  0mm
17:05 20.9 °F /  -6.2 °C 13.6 °F /  -10.2 °C 30.24in /  1023.9hPa NW 3.0mph /  4.8km/h 8.0mph /  12.9km/h 73% 0.00in /  0mm
17:10 20.6 °F /  -6.3 °C 13.3 °F /  -10.4 °C 30.24in /  1023.9hPa NNW 2.0mph /  3.2km/h 6.0mph /  9.7km/h 73% 0.00in /  0mm
17:15 20.5 °F /  -6.4 °C 13.5 °F /  -10.3 °C 30.24in /  1023.9hPa NW 2.0mph /  3.2km/h 5.0mph /  8km/h 74% 0.00in /  0mm
17:20 20.3 °F /  -6.5 °C 13.3 °F /  -10.4 °C 30.25in /  1024.3hPa NW 1.0mph /  1.6km/h 4.0mph /  6.4km/h 74% 0.00in /  0mm
17:25 20.2 °F /  -6.6 °C 13.2 °F /  -10.4 °C 30.25in /  1024.3hPa NW 2.0mph /  3.2km/h 5.0mph /  8km/h 74% 0.00in /  0mm
17:30 20.1 °F /  -6.6 °C 13.4 °F /  -10.3 °C 30.24in /  1023.9hPa NW 3.0mph /  4.8km/h 6.0mph /  9.7km/h 75% 0.00in /  0mm
17:35 19.9 °F /  -6.7 °C 13.3 °F /  -10.4 °C 30.25in /  1024.3hPa NNW 2.0mph /  3.2km/h 4.0mph /  6.4km/h 75% 0.00in /  0mm
17:40 19.7 °F /  -6.8 °C 13.1 °F /  -10.5 °C 30.25in /  1024.3hPa North 3.0mph /  4.8km/h 6.0mph /  9.7km/h 75% 0.00in /  0mm
17:45 19.7 °F /  -6.8 °C 13.1 °F /  -10.5 °C 30.25in /  1024.3hPa Calm   3.0mph /  4.8km/h 75% 0.00in /  0mm
17:50 19.6 °F /  -6.9 °C 13.0 °F /  -10.6 °C 30.25in /  1024.3hPa North 1.0mph /  1.6km/h 4.0mph /  6.4km/h 75% 0.00in /  0mm
17:55 19.4 °F /  -7 °C 13.1 °F /  -10.5 °C 30.25in /  1024.3hPa North 2.0mph /  3.2km/h 3.0mph /  4.8km/h 76% 0.00in /  0mm
18:00 19.3 °F /  -7.1 °C 13.0 °F /  -10.6 °C 30.25in /  1024.3hPa North 1.0mph /  1.6km/h 3.0mph /  4.8km/h 76% 0.00in /  0mm
18:05 19.3 °F /  -7.1 °C 13.3 °F /  -10.4 °C 30.26in /  1024.6hPa Calm   3.0mph /  4.8km/h 77% 0.00in /  0mm
18:10 19.1 °F /  -7.2 °C 13.1 °F /  -10.5 °C 30.26in /  1024.6hPa Calm   3.0mph /  4.8km/h 77% 0.00in /  0mm
18:15 19.0 °F /  -7.2 °C 13.0 °F /  -10.6 °C 30.26in /  1024.6hPa North 1.0mph /  1.6km/h 4.0mph /  6.4km/h 77% 0.00in /  0mm
18:20 19.0 °F /  -7.2 °C 12.7 °F /  -10.7 °C 30.27in /  1024.9hPa North 2.0mph /  3.2km/h 4.0mph /  6.4km/h 76% 0.00in /  0mm
18:25 18.8 °F /  -7.3 °C 12.5 °F /  -10.8 °C 30.27in /  1024.9hPa North 1.0mph /  1.6km/h 4.0mph /  6.4km/h 76% 0.00in /  0mm
18:30 18.9 °F /  -7.3 °C 12.6 °F /  -10.8 °C 30.27in /  1024.9hPa Calm     76% 0.00in /  0mm
18:35 18.7 °F /  -7.4 °C 12.7 °F /  -10.7 °C 30.27in /  1024.9hPa Calm     77% 0.00in /  0mm
18:40 18.6 °F /  -7.4 °C 12.6 °F /  -10.8 °C 30.27in /  1024.9hPa Calm     77% 0.00in /  0mm
18:45 18.5 °F /  -7.5 °C 12.5 °F /  -10.8 °C 30.27in /  1024.9hPa NNW 2.0mph /  3.2km/h 2.0mph /  3.2km/h 77% 0.00in /  0mm
18:50 18.4 °F /  -7.6 °C 12.4 °F /  -10.9 °C 30.27in /  1024.9hPa Calm   3.0mph /  4.8km/h 77% 0.00in /  0mm
18:55 18.5 °F /  -7.5 °C 12.5 °F /  -10.8 °C 30.27in /  1024.9hPa Calm   3.0mph /  4.8km/h 77% 0.00in /  0mm
19:00 18.5 °F /  -7.5 °C 12.5 °F /  -10.8 °C 30.28in /  1025.3hPa Calm   2.0mph /  3.2km/h 77% 0.00in /  0mm
19:05 18.6 °F /  -7.4 °C 12.6 °F /  -10.8 °C 30.28in /  1025.3hPa Calm   2.0mph /  3.2km/h 77% 0.00in /  0mm
19:10 18.6 °F /  -7.4 °C 12.3 °F /  -10.9 °C 30.28in /  1025.3hPa Calm   4.0mph /  6.4km/h 76% 0.00in /  0mm
19:15 18.7 °F /  -7.4 °C 12.4 °F /  -10.9 °C 30.28in /  1025.3hPa NNW 1.0mph /  1.6km/h 4.0mph /  6.4km/h 76% 0.00in /  0mm
19:20 18.7 °F /  -7.4 °C 12.1 °F /  -11.1 °C 30.28in /  1025.3hPa NNW 1.0mph /  1.6km/h 3.0mph /  4.8km/h 75% 0.00in /  0mm
19:25 18.7 °F /  -7.4 °C 12.1 °F /  -11.1 °C 30.28in /  1025.3hPa Calm   1.0mph /  1.6km/h 75% 0.00in /  0mm
19:30 18.7 °F /  -7.4 °C 12.1 °F /  -11.1 °C 30.28in /  1025.3hPa Calm     75% 0.00in /  0mm
19:35 18.7 °F /  -7.4 °C 12.1 °F /  -11.1 °C 30.29in /  1025.6hPa Calm     75% 0.00in /  0mm
19:40 18.8 °F /  -7.3 °C 11.9 °F /  -11.2 °C 30.29in /  1025.6hPa Calm     74% 0.00in /  0mm
19:45 18.7 °F /  -7.4 °C 12.1 °F /  -11.1 °C 30.29in /  1025.6hPa Calm     75% 0.00in /  0mm
19:50 18.8 °F /  -7.3 °C 12.2 °F /  -11 °C 30.29in /  1025.6hPa Calm     75% 0.00in /  0mm
19:55 18.8 °F /  -7.3 °C 12.2 °F /  -11 °C 30.29in /  1025.6hPa Calm     75% 0.00in /  0mm
20:00 19.0 °F /  -7.2 °C 12.4 °F /  -10.9 °C 30.30in /  1026hPa Calm   2.0mph /  3.2km/h 75% 0.00in /  0mm
20:05 19.1 °F /  -7.2 °C 12.5 °F /  -10.8 °C 30.30in /  1026hPa Calm   2.0mph /  3.2km/h 75% 0.00in /  0mm
20:10 19.1 °F /  -7.2 °C 12.5 °F /  -10.8 °C 30.30in /  1026hPa NNW 1.0mph /  1.6km/h 2.0mph /  3.2km/h 75% 0.00in /  0mm
20:15 19.2 °F /  -7.1 °C 12.6 °F /  -10.8 °C 30.30in /  1026hPa NNW 1.0mph /  1.6km/h 2.0mph /  3.2km/h 75% 0.00in /  0mm
20:20 19.1 °F /  -7.2 °C 12.5 °F /  -10.8 °C 30.30in /  1026hPa Calm   1.0mph /  1.6km/h 75% 0.00in /  0mm
20:25 19.0 °F /  -7.2 °C 12.7 °F /  -10.7 °C 30.30in /  1026hPa Calm     76% 0.00in /  0mm
20:30 19.0 °F /  -7.2 °C 12.7 °F /  -10.7 °C 30.30in /  1026hPa Calm     76% 0.00in /  0mm
20:35 19.1 °F /  -7.2 °C 12.8 °F /  -10.7 °C 30.30in /  1026hPa Calm     76% 0.00in /  0mm
20:40 19.1 °F /  -7.2 °C 12.8 °F /  -10.7 °C 30.30in /  1026hPa Calm     76% 0.00in /  0mm
20:45 19.1 °F /  -7.2 °C 12.8 °F /  -10.7 °C 30.31in /  1026.3hPa Calm     76% 0.00in /  0mm
20:50 19.3 °F /  -7.1 °C 13.0 °F /  -10.6 °C 30.31in /  1026.3hPa Calm   1.0mph /  1.6km/h 76% 0.00in /  0mm
20:55 19.3 °F /  -7.1 °C 13.0 °F /  -10.6 °C 30.31in /  1026.3hPa Calm   2.0mph /  3.2km/h 76% 0.00in /  0mm
21:00 19.2 °F /  -7.1 °C 12.9 °F /  -10.6 °C 30.31in /  1026.3hPa Calm     76% 0.00in /  0mm
21:05 19.3 °F /  -7.1 °C 13.0 °F /  -10.6 °C 30.31in /  1026.3hPa Calm   1.0mph /  1.6km/h 76% 0.00in /  0mm
21:10 19.3 °F /  -7.1 °C 13.0 °F /  -10.6 °C 30.31in /  1026.3hPa Calm     76% 0.00in /  0mm
21:15 19.3 °F /  -7.1 °C 13.3 °F /  -10.4 °C 30.31in /  1026.3hPa Calm   2.0mph /  3.2km/h 77% 0.00in /  0mm
21:20 19.3 °F /  -7.1 °C 13.0 °F /  -10.6 °C 30.31in /  1026.3hPa Calm   2.0mph /  3.2km/h 76% 0.00in /  0mm
21:25 19.4 °F /  -7 °C 13.1 °F /  -10.5 °C 30.31in /  1026.3hPa Calm     76% 0.00in /  0mm
21:30 19.5 °F /  -6.9 °C 12.9 °F /  -10.6 °C 30.31in /  1026.3hPa Calm     75% 0.00in /  0mm
21:35 19.4 °F /  -7 °C 13.1 °F /  -10.5 °C 30.31in /  1026.3hPa Calm     76% 0.00in /  0mm
21:40 19.4 °F /  -7 °C 13.1 °F /  -10.5 °C 30.31in /  1026.3hPa Calm     76% 0.00in /  0mm
21:45 19.4 °F /  -7 °C 13.1 °F /  -10.5 °C 30.31in /  1026.3hPa Calm     76% 0.00in /  0mm
21:50 19.4 °F /  -7 °C 13.4 °F /  -10.3 °C 30.31in /  1026.3hPa Calm     77% 0.00in /  0mm
21:55 19.6 °F /  -6.9 °C 13.6 °F /  -10.2 °C 30.31in /  1026.3hPa Calm     77% 0.00in /  0mm
22:00 19.7 °F /  -6.8 °C 13.4 °F /  -10.3 °C 30.32in /  1026.6hPa Calm     76% 0.00in /  0mm
22:05 19.7 °F /  -6.8 °C 13.4 °F /  -10.3 °C 30.31in /  1026.3hPa Calm     76% 0.00in /  0mm
22:10 19.8 °F /  -6.8 °C 13.5 °F /  -10.3 °C 30.31in /  1026.3hPa NNW 2.0mph /  3.2km/h 4.0mph /  6.4km/h 76% 0.00in /  0mm
22:15 19.9 °F /  -6.7 °C 13.6 °F /  -10.2 °C 30.31in /  1026.3hPa Calm   2.0mph /  3.2km/h 76% 0.00in /  0mm
22:20 19.9 °F /  -6.7 °C 13.6 °F /  -10.2 °C 30.31in /  1026.3hPa Calm   1.0mph /  1.6km/h 76% 0.00in /  0mm
22:25 19.9 °F /  -6.7 °C 13.6 °F /  -10.2 °C 30.31in /  1026.3hPa Calm   1.0mph /  1.6km/h 76% 0.00in /  0mm
22:30 20.0 °F /  -6.7 °C 13.6 °F /  -10.2 °C 30.32in /  1026.6hPa Calm     76% 0.00in /  0mm
22:35 20.1 °F /  -6.6 °C 13.7 °F /  -10.2 °C 30.32in /  1026.6hPa Calm     76% 0.00in /  0mm
22:40 20.1 °F /  -6.6 °C 14.0 °F /  -10 °C 30.32in /  1026.6hPa Calm     77% 0.00in /  0mm
22:45 20.2 °F /  -6.6 °C 14.1 °F /  -9.9 °C 30.32in /  1026.6hPa Calm   4.0mph /  6.4km/h 77% 0.00in /  0mm
22:50 20.2 °F /  -6.6 °C 13.8 °F /  -10.1 °C 30.32in /  1026.6hPa NNW 1.0mph /  1.6km/h 3.0mph /  4.8km/h 76% 0.00in /  0mm
22:55 20.3 °F /  -6.5 °C 13.9 °F /  -10.1 °C 30.32in /  1026.6hPa NNW 2.0mph /  3.2km/h 4.0mph /  6.4km/h 76% 0.00in /  0mm
23:00 20.5 °F /  -6.4 °C 13.8 °F /  -10.1 °C 30.32in /  1026.6hPa NNW 2.0mph /  3.2km/h 4.0mph /  6.4km/h 75% 0.00in /  0mm
23:05 20.5 °F /  -6.4 °C 13.8 °F /  -10.1 °C 30.32in /  1026.6hPa NW 2.0mph /  3.2km/h 4.0mph /  6.4km/h 75% 0.00in /  0mm
23:10 20.6 °F /  -6.3 °C 13.9 °F /  -10.1 °C 30.33in /  1027hPa NW 3.0mph /  4.8km/h 4.0mph /  6.4km/h 75% 0.00in /  0mm
23:15 20.5 °F /  -6.4 °C 13.8 °F /  -10.1 °C 30.32in /  1026.6hPa NW 3.0mph /  4.8km/h 4.0mph /  6.4km/h 75% 0.00in /  0mm
23:20 20.4 °F /  -6.4 °C 13.7 °F /  -10.2 °C 30.32in /  1026.6hPa NW 1.0mph /  1.6km/h 4.0mph /  6.4km/h 75% 0.00in /  0mm
23:25 20.4 °F /  -6.4 °C 13.7 °F /  -10.2 °C 30.33in /  1027hPa NW 1.0mph /  1.6km/h 4.0mph /  6.4km/h 75% 0.00in /  0mm
23:30 20.4 °F /  -6.4 °C 13.7 °F /  -10.2 °C 30.32in /  1026.6hPa NW 1.0mph /  1.6km/h 3.0mph /  4.8km/h 75% 0.00in /  0mm
23:35 20.3 °F /  -6.5 °C 13.6 °F /  -10.2 °C 30.33in /  1027hPa NW 1.0mph /  1.6km/h 4.0mph /  6.4km/h 75% 0.00in /  0mm
23:40 20.3 °F /  -6.5 °C 13.6 °F /  -10.2 °C 30.33in /  1027hPa NW 2.0mph /  3.2km/h 4.0mph /  6.4km/h 75% 0.00in /  0mm
23:45 20.3 °F /  -6.5 °C 13.6 °F /  -10.2 °C 30.33in /  1027hPa NW 2.0mph /  3.2km/h 5.0mph /  8km/h 75% 0.00in /  0mm
23:50 20.3 °F /  -6.5 °C 13.6 °F /  -10.2 °C 30.33in /  1027hPa NNW 2.0mph /  3.2km/h 5.0mph /  8km/h 75% 0.00in /  0mm
23:55 20.4 °F /  -6.4 °C 13.7 °F /  -10.2 °C 30.33in /  1027hPa Calm   4.0mph /  6.4km/h 75% 0.00in /  0mm
Buffalo, New York, USA
Compliments of Weather Underground - 2.25 mb